createdAt,value
2018-03-15T00:00:18.355Z,4.69
2018-03-15T00:01:18.364Z,4.70
2018-03-15T00:02:18.366Z,4.70
2018-03-15T00:03:18.379Z,4.69
2018-03-15T00:04:18.384Z,4.75
2018-03-15T00:05:18.386Z,4.73
2018-03-15T00:06:18.396Z,4.75
2018-03-15T00:07:18.401Z,4.77
2018-03-15T00:08:18.408Z,4.67
2018-03-15T00:09:18.413Z,4.69
2018-03-15T00:10:18.439Z,4.58
2018-03-15T00:11:18.424Z,4.61
2018-03-15T00:12:18.431Z,4.64
2018-03-15T00:13:18.437Z,4.55
2018-03-15T00:14:18.443Z,4.59
2018-03-15T00:15:18.472Z,4.58
2018-03-15T00:16:18.477Z,4.64
2018-03-15T00:17:18.466Z,4.69
2018-03-15T00:18:18.470Z,4.65
2018-03-15T00:19:18.474Z,4.58
2018-03-15T00:20:18.484Z,4.59
2018-03-15T00:21:18.490Z,4.65
2018-03-15T00:22:18.502Z,4.65
2018-03-15T00:23:18.504Z,4.67
2018-03-15T00:24:18.509Z,4.55
2018-03-15T00:25:18.513Z,4.59
2018-03-15T00:26:18.531Z,4.43
2018-03-15T00:27:18.530Z,4.44
2018-03-15T00:28:18.540Z,4.50
2018-03-15T00:29:18.543Z,4.44
2018-03-15T00:30:18.545Z,4.46
2018-03-15T00:31:18.554Z,4.52
2018-03-15T00:32:18.562Z,4.39
2018-03-15T00:33:18.565Z,4.46
2018-03-15T00:34:18.574Z,4.44
2018-03-15T00:35:18.579Z,4.39
2018-03-15T00:36:18.586Z,4.36
2018-03-15T00:37:18.597Z,4.37
2018-03-15T00:38:18.596Z,4.50
2018-03-15T00:39:18.604Z,4.36
2018-03-15T00:40:18.623Z,4.39
2018-03-15T00:41:18.625Z,4.32
2018-03-15T00:42:18.623Z,4.29
2018-03-15T00:43:18.628Z,4.28
2018-03-15T00:44:18.636Z,4.26
2018-03-15T00:45:18.642Z,4.32
2018-03-15T00:46:18.657Z,4.29
2018-03-15T00:47:18.657Z,4.26
2018-03-15T00:48:18.661Z,4.29
2018-03-15T00:49:18.668Z,4.26
2018-03-15T00:50:18.673Z,4.22
2018-03-15T00:51:18.689Z,4.24
2018-03-15T00:52:18.695Z,4.21
2018-03-15T00:53:18.692Z,4.19
2018-03-15T00:54:18.701Z,4.15
2018-03-15T00:55:18.703Z,4.07
2018-03-15T00:56:18.708Z,4.10
2018-03-15T00:57:18.716Z,4.15
2018-03-15T00:58:18.728Z,4.01
2018-03-15T00:59:18.729Z,4.08
2018-03-15T01:00:18.737Z,4.04
2018-03-15T01:01:18.745Z,4.07
2018-03-15T01:02:18.748Z,4.12
2018-03-15T01:03:18.754Z,4.08
2018-03-15T01:04:18.769Z,4.14
2018-03-15T01:05:18.769Z,4.06
2018-03-15T01:06:18.776Z,4.08
2018-03-15T01:07:18.777Z,4.08
2018-03-15T01:08:18.784Z,4.06
2018-03-15T01:09:18.791Z,4.14
2018-03-15T01:10:18.801Z,4.08
2018-03-15T01:11:18.806Z,4.07
2018-03-15T01:12:18.816Z,4.10
2018-03-15T01:13:18.815Z,4.04
2018-03-15T01:14:18.822Z,4.10
2018-03-15T01:15:18.829Z,4.12
2018-03-15T01:16:18.836Z,4.16
2018-03-15T01:17:18.845Z,4.10
2018-03-15T01:18:18.845Z,4.15
2018-03-15T01:19:18.850Z,4.21
2018-03-15T01:20:18.859Z,4.16
2018-03-15T01:21:18.864Z,4.25
2018-03-15T01:22:18.877Z,4.26
2018-03-15T01:23:18.881Z,4.16
2018-03-15T01:24:18.884Z,4.26
2018-03-15T01:25:18.893Z,4.25
2018-03-15T01:26:18.895Z,4.33
2018-03-15T01:27:18.903Z,4.33
2018-03-15T01:28:18.908Z,4.26
2018-03-15T01:29:18.918Z,4.25
2018-03-15T01:30:18.918Z,4.40
2018-03-15T01:31:18.929Z,4.40
2018-03-15T01:32:18.934Z,4.43
2018-03-15T01:33:18.937Z,4.44
2018-03-15T01:34:18.945Z,4.42
2018-03-15T01:35:18.964Z,4.32
2018-03-15T01:36:18.959Z,4.40
2018-03-15T01:37:18.967Z,4.36
2018-03-15T01:38:18.970Z,4.39
2018-03-15T01:39:18.978Z,4.40
2018-03-15T01:40:18.983Z,4.43
2018-03-15T01:41:18.996Z,4.47
2018-03-15T01:42:18.997Z,4.46
2018-03-15T01:43:19.000Z,4.54
2018-03-15T01:44:19.011Z,4.54
2018-03-15T01:45:19.020Z,4.61
2018-03-15T01:46:19.019Z,4.61
2018-03-15T01:47:19.033Z,4.67
2018-03-15T01:48:19.034Z,4.65
2018-03-15T01:49:19.041Z,4.75
2018-03-15T01:50:19.052Z,4.70
2018-03-15T01:51:19.059Z,4.67
2018-03-15T01:52:19.063Z,4.73
2018-03-15T01:53:19.074Z,4.75
2018-03-15T01:54:19.072Z,4.76
2018-03-15T01:55:19.077Z,4.79
2018-03-15T01:56:19.085Z,4.86
2018-03-15T01:57:19.091Z,4.80
2018-03-15T01:58:19.106Z,4.91
2018-03-15T01:59:19.120Z,4.86
2018-03-15T02:00:19.109Z,4.88
2018-03-15T02:01:19.122Z,4.84
2018-03-15T02:02:19.126Z,4.86
2018-03-15T02:03:19.139Z,4.86
2018-03-15T02:04:19.142Z,4.84
2018-03-15T02:05:19.150Z,4.84
2018-03-15T02:06:19.152Z,4.83
2018-03-15T02:07:19.155Z,4.83
2018-03-15T02:08:19.168Z,4.86
2018-03-15T02:09:19.173Z,4.94
2018-03-15T02:10:19.180Z,4.86
2018-03-15T02:11:19.192Z,4.86
2018-03-15T02:12:19.189Z,4.91
2018-03-15T02:13:19.203Z,4.79
2018-03-15T02:14:19.203Z,4.77
2018-03-15T02:15:19.208Z,4.75
2018-03-15T02:16:19.215Z,4.77
2018-03-15T02:17:19.234Z,4.76
2018-03-15T02:18:19.232Z,4.75
2018-03-15T02:19:19.240Z,4.79
2018-03-15T02:20:19.249Z,4.84
2018-03-15T02:21:19.248Z,4.75
2018-03-15T02:22:19.257Z,4.72
2018-03-15T02:23:19.262Z,4.72
2018-03-15T02:24:19.269Z,4.72
2018-03-15T02:25:19.284Z,4.73
2018-03-15T02:26:19.282Z,4.76
2018-03-15T02:27:19.290Z,4.75
2018-03-15T02:28:19.303Z,4.69
2018-03-15T02:29:19.306Z,4.73
2018-03-15T02:30:19.309Z,4.72
2018-03-15T02:31:19.326Z,4.79
2018-03-15T02:32:19.322Z,4.70
2018-03-15T02:33:19.346Z,4.73
2018-03-15T02:34:19.338Z,4.64
2018-03-15T02:35:19.343Z,4.59
2018-03-15T02:36:19.348Z,4.69
2018-03-15T02:37:19.359Z,4.73
2018-03-15T02:38:19.368Z,4.73
2018-03-15T02:39:19.379Z,4.72
2018-03-15T02:40:19.374Z,4.70
2018-03-15T02:41:19.382Z,4.84
2018-03-15T02:42:19.386Z,4.70
2018-03-15T02:43:19.393Z,4.76
2018-03-15T02:44:19.412Z,4.67
2018-03-15T02:45:19.408Z,4.62
2018-03-15T02:46:19.414Z,4.58
2018-03-15T02:47:19.420Z,4.61
2018-03-15T02:48:19.432Z,4.52
2018-03-15T02:49:19.440Z,4.61
2018-03-15T02:50:19.441Z,4.65
2018-03-15T02:51:19.447Z,4.65
2018-03-15T02:52:19.457Z,4.72
2018-03-15T02:53:19.460Z,4.70
2018-03-15T02:54:19.486Z,4.72
2018-03-15T02:55:19.477Z,4.69
2018-03-15T02:56:19.484Z,4.69
2018-03-15T02:57:19.496Z,4.75
2018-03-15T02:58:19.493Z,4.75
2018-03-15T02:59:19.501Z,4.86
2018-03-15T03:00:19.516Z,4.86
2018-03-15T03:01:19.512Z,4.88
2018-03-15T03:02:19.521Z,4.79
2018-03-15T03:03:19.527Z,4.84
2018-03-15T03:04:19.534Z,4.80
2018-03-15T03:05:19.542Z,4.84
2018-03-15T03:06:19.563Z,4.79
2018-03-15T03:07:19.553Z,4.84
2018-03-15T03:08:19.561Z,4.75
2018-03-15T03:09:19.567Z,4.77
2018-03-15T03:10:19.569Z,4.86
2018-03-15T03:11:19.577Z,4.89
2018-03-15T03:12:19.592Z,4.80
2018-03-15T03:13:19.598Z,4.88
2018-03-15T03:14:19.603Z,4.95
2018-03-15T03:15:19.602Z,4.94
2018-03-15T03:16:19.611Z,4.98
2018-03-15T03:17:19.619Z,4.94
2018-03-15T03:18:19.629Z,4.99
2018-03-15T03:19:19.652Z,4.94
2018-03-15T03:20:19.637Z,5.02
2018-03-15T03:21:19.644Z,4.99
2018-03-15T03:22:19.649Z,5.13
2018-03-15T03:23:19.659Z,5.05
2018-03-15T03:24:19.676Z,5.09
2018-03-15T03:25:19.673Z,5.05
2018-03-15T03:26:19.678Z,4.99
2018-03-15T03:27:19.686Z,4.89
2018-03-15T03:28:19.694Z,5.01
2018-03-15T03:29:19.696Z,4.91
2018-03-15T03:30:19.714Z,5.04
2018-03-15T03:31:19.712Z,5.04
2018-03-15T03:32:19.719Z,4.99
2018-03-15T03:33:19.723Z,5.01
2018-03-15T03:34:19.736Z,4.98
2018-03-15T03:35:19.735Z,4.83
2018-03-15T03:36:19.759Z,4.86
2018-03-15T03:37:19.756Z,4.80
2018-03-15T03:38:19.755Z,4.91
2018-03-15T03:39:19.769Z,4.89
2018-03-15T03:40:19.770Z,4.99
2018-03-15T03:41:19.779Z,4.96
2018-03-15T03:42:19.788Z,5.07
2018-03-15T03:43:19.800Z,4.88
2018-03-15T03:44:19.801Z,4.88
2018-03-15T03:45:19.805Z,4.89
2018-03-15T03:46:19.813Z,4.89
2018-03-15T03:47:19.817Z,4.88
2018-03-15T03:48:19.826Z,4.95
2018-03-15T03:49:19.843Z,4.89
2018-03-15T03:50:19.839Z,4.83
2018-03-15T03:51:19.844Z,4.84
2018-03-15T03:52:19.851Z,4.91
2018-03-15T03:53:19.857Z,4.70
2018-03-15T03:54:19.865Z,4.76
2018-03-15T03:55:19.874Z,4.79
2018-03-15T03:56:19.878Z,4.75
2018-03-15T03:57:19.893Z,4.94
2018-03-15T03:58:19.893Z,4.88
2018-03-15T03:59:19.909Z,4.86
2018-03-15T04:00:19.908Z,4.84
2018-03-15T04:01:19.919Z,4.86
2018-03-15T04:02:19.928Z,4.79
2018-03-15T04:03:19.937Z,4.88
2018-03-15T04:04:19.938Z,4.99
2018-03-15T04:05:19.943Z,4.98
2018-03-15T04:06:19.947Z,4.91
2018-03-15T04:07:19.952Z,4.99
2018-03-15T04:08:19.973Z,5.04
2018-03-15T04:09:19.965Z,5.07
2018-03-15T04:10:19.973Z,5.16
2018-03-15T04:11:19.980Z,5.04
2018-03-15T04:12:19.986Z,5.09
2018-03-15T04:13:19.993Z,5.19
2018-03-15T04:14:20.005Z,5.17
2018-03-15T04:15:20.005Z,5.16
2018-03-15T04:16:20.014Z,5.10
2018-03-15T04:17:20.022Z,5.02
2018-03-15T04:18:20.025Z,5.13
2018-03-15T04:19:20.036Z,4.99
2018-03-15T04:20:20.051Z,5.16
2018-03-15T04:21:20.046Z,5.10
2018-03-15T04:22:20.055Z,5.09
2018-03-15T04:23:20.060Z,5.10
2018-03-15T04:24:20.074Z,5.07
2018-03-15T04:25:20.074Z,4.98
2018-03-15T04:26:20.087Z,5.04
2018-03-15T04:27:20.113Z,4.94
2018-03-15T04:28:20.129Z,4.84
2018-03-15T04:29:20.102Z,4.86
2018-03-15T04:30:20.106Z,4.83
2018-03-15T04:31:20.117Z,4.88
2018-03-15T04:32:20.129Z,4.99
2018-03-15T04:33:20.131Z,5.01
2018-03-15T04:34:20.145Z,4.88
2018-03-15T04:35:20.142Z,4.98
2018-03-15T04:36:20.151Z,4.99
2018-03-15T04:37:20.176Z,5.04
2018-03-15T04:38:20.162Z,5.05
2018-03-15T04:39:20.174Z,5.01
2018-03-15T04:40:20.178Z,4.98
2018-03-15T04:41:20.185Z,4.91
2018-03-15T04:42:20.191Z,4.79
2018-03-15T04:43:20.195Z,4.84
2018-03-15T04:44:20.226Z,4.84
2018-03-15T04:45:20.216Z,4.94
2018-03-15T04:46:20.222Z,4.80
2018-03-15T04:47:20.228Z,4.89
2018-03-15T04:48:20.232Z,4.84
2018-03-15T04:49:20.237Z,4.79
2018-03-15T04:50:20.244Z,4.80
2018-03-15T04:51:20.256Z,4.96
2018-03-15T04:52:20.254Z,4.91
2018-03-15T04:53:20.262Z,4.92
2018-03-15T04:54:20.284Z,4.96
2018-03-15T04:55:20.278Z,4.96
2018-03-15T04:56:20.284Z,4.98
2018-03-15T04:57:20.290Z,5.05
2018-03-15T04:58:20.303Z,4.94
2018-03-15T04:59:20.326Z,4.89
2018-03-15T05:00:20.310Z,4.83
2018-03-15T05:01:20.318Z,4.80
2018-03-15T05:02:20.327Z,4.80
2018-03-15T05:03:20.338Z,4.84
2018-03-15T05:04:20.344Z,4.83
2018-03-15T05:05:20.345Z,4.89
2018-03-15T05:06:20.354Z,4.84
2018-03-15T05:07:20.374Z,4.86
2018-03-15T05:08:20.363Z,4.80
2018-03-15T05:09:20.370Z,4.80
2018-03-15T05:10:20.395Z,4.72
2018-03-15T05:11:20.383Z,4.70
2018-03-15T05:12:20.393Z,4.76
2018-03-15T05:13:20.397Z,4.65
2018-03-15T05:14:20.405Z,4.40
2018-03-15T05:15:20.408Z,4.26
2018-03-15T05:16:20.422Z,3.96
2018-03-15T05:17:20.423Z,3.89
2018-03-15T05:18:20.433Z,3.97
2018-03-15T05:19:20.438Z,4.01
2018-03-15T05:20:20.443Z,4.04
2018-03-15T05:21:20.461Z,3.97
2018-03-15T05:22:20.459Z,4.04
2018-03-15T05:23:20.460Z,4.01
2018-03-15T05:24:20.469Z,4.16
2018-03-15T05:25:20.476Z,4.18
2018-03-15T05:26:20.481Z,4.12
2018-03-15T05:27:20.493Z,4.19
2018-03-15T05:28:20.496Z,4.21
2018-03-15T05:29:20.521Z,4.33
2018-03-15T05:30:20.513Z,4.42
2018-03-15T05:31:20.512Z,4.36
2018-03-15T05:32:20.527Z,4.40
2018-03-15T05:33:20.537Z,4.43
2018-03-15T05:34:20.536Z,4.51
2018-03-15T05:35:20.540Z,4.59
2018-03-15T05:36:20.546Z,4.52
2018-03-15T05:37:20.554Z,4.59
2018-03-15T05:38:20.604Z,4.61
2018-03-15T05:39:20.572Z,4.69
2018-03-15T05:40:20.595Z,4.72
2018-03-15T05:41:20.580Z,4.80
2018-03-15T05:42:20.590Z,4.76
2018-03-15T05:43:20.594Z,4.75
2018-03-15T05:44:20.598Z,4.83
2018-03-15T05:45:20.608Z,4.91
2018-03-15T05:46:20.611Z,4.84
2018-03-15T05:47:20.620Z,4.86
2018-03-15T05:48:20.622Z,4.83
2018-03-15T05:49:20.630Z,4.86
2018-03-15T05:50:20.636Z,5.01
2018-03-15T05:51:20.652Z,4.91
2018-03-15T05:52:20.651Z,5.04
2018-03-15T05:53:20.657Z,4.99
2018-03-15T05:54:20.670Z,4.96
2018-03-15T05:55:20.673Z,5.02
2018-03-15T05:56:20.677Z,5.05
2018-03-15T05:57:20.699Z,5.07
2018-03-15T05:58:20.703Z,4.98
2018-03-15T05:59:20.699Z,5.01
2018-03-15T06:00:20.707Z,4.98
2018-03-15T06:01:20.712Z,5.01
2018-03-15T06:02:20.715Z,5.01
2018-03-15T06:03:20.726Z,4.86
2018-03-15T06:04:20.734Z,4.89
2018-03-15T06:05:20.740Z,4.94
2018-03-15T06:06:20.745Z,4.84
2018-03-15T06:07:20.749Z,4.80
2018-03-15T06:08:20.758Z,4.84
2018-03-15T06:09:20.773Z,4.86
2018-03-15T06:10:20.769Z,4.86
2018-03-15T06:11:20.779Z,4.89
2018-03-15T06:12:20.782Z,5.09
2018-03-15T06:13:20.790Z,4.98
2018-03-15T06:14:20.819Z,5.12
2018-03-15T06:15:20.808Z,5.13
2018-03-15T06:16:20.814Z,5.04
2018-03-15T06:17:20.822Z,5.17
2018-03-15T06:18:20.827Z,5.20
2018-03-15T06:19:20.832Z,5.17
2018-03-15T06:20:20.841Z,5.19
2018-03-15T06:21:20.852Z,5.09
2018-03-15T06:22:20.850Z,5.09
2018-03-15T06:23:20.856Z,4.98
2018-03-15T06:24:20.865Z,4.95
2018-03-15T06:25:20.874Z,4.84
2018-03-15T06:26:20.876Z,4.86
2018-03-15T06:27:20.885Z,4.76
2018-03-15T06:28:20.898Z,4.91
2018-03-15T06:29:20.899Z,4.86
2018-03-15T06:30:20.904Z,4.94
2018-03-15T06:31:20.913Z,4.98
2018-03-15T06:32:20.919Z,4.73
2018-03-15T06:33:20.927Z,4.86
2018-03-15T06:34:20.932Z,4.75
2018-03-15T06:35:20.945Z,4.77
2018-03-15T06:36:20.946Z,4.75
2018-03-15T06:37:20.952Z,4.86
2018-03-15T06:38:20.961Z,4.80
2018-03-15T06:39:20.969Z,4.83
2018-03-15T06:40:20.974Z,4.80
2018-03-15T06:41:20.986Z,4.77
2018-03-15T06:42:20.990Z,4.88
2018-03-15T06:43:20.992Z,4.80
2018-03-15T06:44:21.001Z,4.70
2018-03-15T06:45:21.006Z,4.69
2018-03-15T06:46:21.015Z,4.72
2018-03-15T06:47:21.018Z,4.75
2018-03-15T06:48:21.031Z,4.77
2018-03-15T06:49:21.037Z,4.83
2018-03-15T06:50:21.038Z,4.89
2018-03-15T06:51:21.103Z,4.80
2018-03-15T06:52:21.054Z,4.69
2018-03-15T06:53:21.062Z,4.86
2018-03-15T06:54:21.070Z,4.86
2018-03-15T06:55:21.074Z,5.05
2018-03-15T06:56:21.081Z,4.94
2018-03-15T06:57:21.089Z,5.02
2018-03-15T06:58:21.091Z,5.09
2018-03-15T06:59:21.103Z,5.16
2018-03-15T07:00:21.131Z,5.22
2018-03-15T07:01:21.114Z,5.09
2018-03-15T07:02:21.123Z,5.09
2018-03-15T07:03:21.128Z,4.99
2018-03-15T07:04:21.135Z,5.09
2018-03-15T07:05:21.141Z,5.05
2018-03-15T07:06:21.158Z,5.13
2018-03-15T07:07:21.153Z,5.12
2018-03-15T07:08:21.177Z,5.23
2018-03-15T07:09:21.172Z,5.20
2018-03-15T07:10:21.210Z,5.17
2018-03-15T07:11:21.183Z,5.14
2018-03-15T07:12:21.198Z,5.20
2018-03-15T07:13:21.197Z,5.14
2018-03-15T07:14:21.203Z,5.22
2018-03-15T07:15:21.214Z,5.16
2018-03-15T07:16:21.222Z,5.20
2018-03-15T07:17:21.237Z,5.14
2018-03-15T07:18:21.238Z,5.22
2018-03-15T07:19:21.239Z,5.16
2018-03-15T07:20:21.245Z,5.16
2018-03-15T07:21:21.273Z,5.27
2018-03-15T07:22:21.258Z,5.27
2018-03-15T07:23:21.267Z,5.32
2018-03-15T07:24:21.273Z,5.10
2018-03-15T07:25:21.284Z,5.17
2018-03-15T07:26:21.288Z,5.14
2018-03-15T07:27:21.293Z,5.30
2018-03-15T07:28:21.301Z,5.31
2018-03-15T07:29:21.307Z,5.30
2018-03-15T07:30:21.314Z,5.35
2018-03-15T07:31:21.326Z,5.46
2018-03-15T07:32:21.329Z,5.57
2018-03-15T07:33:21.343Z,5.49
2018-03-15T07:34:21.344Z,5.63
2018-03-15T07:35:21.348Z,5.71
2018-03-15T07:36:21.357Z,5.64
2018-03-15T07:37:21.368Z,5.73
2018-03-15T07:38:21.369Z,5.73
2018-03-15T07:39:21.410Z,5.83
2018-03-15T07:40:21.383Z,5.75
2018-03-15T07:41:21.398Z,5.92
2018-03-15T07:42:21.395Z,5.89
2018-03-15T07:43:21.413Z,5.86
2018-03-15T07:44:21.413Z,5.82
2018-03-15T07:45:21.426Z,5.86
2018-03-15T07:46:21.427Z,5.71
2018-03-15T07:47:21.449Z,5.88
2018-03-15T07:48:21.442Z,5.85
2018-03-15T07:49:21.448Z,5.68
2018-03-15T07:50:21.455Z,5.77
2018-03-15T07:51:21.469Z,5.60
2018-03-15T07:52:21.472Z,5.74
2018-03-15T07:53:21.540Z,5.73
2018-03-15T07:54:21.487Z,5.78
2018-03-15T07:55:21.503Z,5.60
2018-03-15T07:56:21.501Z,5.71
2018-03-15T07:57:21.509Z,5.74
2018-03-15T07:58:21.515Z,5.70
2018-03-15T07:59:21.524Z,5.70
2018-03-15T08:00:21.534Z,5.75
2018-03-15T08:01:21.546Z,5.77
2018-03-15T08:02:21.542Z,5.91
2018-03-15T08:03:21.562Z,5.92
2018-03-15T08:04:21.569Z,5.78
2018-03-15T08:05:21.566Z,5.68
2018-03-15T08:06:21.573Z,5.48
2018-03-15T08:07:21.633Z,5.52
2018-03-15T08:08:21.591Z,5.59
2018-03-15T08:09:21.596Z,5.50
2018-03-15T08:10:21.604Z,5.49
2018-03-15T08:11:22.041Z,5.71
2018-03-15T08:12:21.618Z,5.82
2018-03-15T08:13:21.627Z,5.88
2018-03-15T08:14:21.636Z,5.85
2018-03-15T08:15:21.651Z,6.00
2018-03-15T08:16:21.651Z,5.95
2018-03-15T08:17:21.659Z,6.04
2018-03-15T08:18:21.666Z,6.09
2018-03-15T08:19:21.669Z,6.07
2018-03-15T08:20:21.682Z,6.19
2018-03-15T08:21:21.695Z,6.25
2018-03-15T08:22:21.694Z,6.16
2018-03-15T08:23:21.700Z,6.04
2018-03-15T08:24:21.711Z,6.22
2018-03-15T08:25:21.718Z,6.33
2018-03-15T08:26:21.722Z,6.29
2018-03-15T08:27:21.748Z,6.35
2018-03-15T08:28:21.739Z,6.29
2018-03-15T08:29:21.748Z,6.25
2018-03-15T08:30:21.759Z,6.22
2018-03-15T08:31:21.764Z,6.28
2018-03-15T08:32:21.773Z,6.10
2018-03-15T08:33:21.829Z,6.18
2018-03-15T08:34:21.783Z,6.30
2018-03-15T08:35:21.796Z,6.32
2018-03-15T08:36:21.802Z,6.43
2018-03-15T08:37:21.818Z,6.53
2018-03-15T08:38:21.816Z,6.50
2018-03-15T08:39:21.824Z,6.61
2018-03-15T08:40:21.832Z,6.56
2018-03-15T08:41:21.842Z,6.48
2018-03-15T08:42:21.853Z,6.53
2018-03-15T08:43:21.859Z,6.56
2018-03-15T08:44:21.864Z,6.51
2018-03-15T08:45:21.876Z,6.66
2018-03-15T08:46:21.883Z,6.66
2018-03-15T08:47:21.889Z,6.59
2018-03-15T08:48:21.902Z,6.41
2018-03-15T08:49:21.904Z,6.46
2018-03-15T08:50:21.914Z,6.56
2018-03-15T08:51:21.916Z,6.79
2018-03-15T08:52:21.973Z,6.87
2018-03-15T08:53:21.934Z,7.05
2018-03-15T08:54:21.941Z,7.01
2018-03-15T08:55:21.952Z,7.07
2018-03-15T08:56:21.955Z,7.23
2018-03-15T08:57:21.966Z,7.20
2018-03-15T08:58:21.975Z,7.22
2018-03-15T08:59:21.982Z,7.41
2018-03-15T09:00:22.032Z,7.04
2018-03-15T09:01:22.005Z,6.95
2018-03-15T09:02:22.006Z,7.02
2018-03-15T09:03:22.018Z,7.20
2018-03-15T09:04:22.028Z,7.12
2018-03-15T09:05:22.030Z,7.23
2018-03-15T09:06:22.038Z,7.13
2018-03-15T09:07:22.046Z,7.22
2018-03-15T09:08:22.056Z,7.42
2018-03-15T09:09:22.065Z,7.31
2018-03-15T09:10:22.080Z,7.07
2018-03-15T09:11:22.080Z,7.15
2018-03-15T09:12:22.085Z,7.19
2018-03-15T09:13:22.098Z,7.22
2018-03-15T09:14:22.109Z,7.23
2018-03-15T09:15:22.111Z,7.24
2018-03-15T09:16:22.126Z,7.41
2018-03-15T09:17:22.140Z,7.59
2018-03-15T09:18:22.145Z,7.56
2018-03-15T09:19:22.146Z,7.58
2018-03-15T09:20:22.152Z,7.67
2018-03-15T09:21:22.162Z,7.74
2018-03-15T09:22:22.173Z,7.59
2018-03-15T09:23:22.178Z,7.62
2018-03-15T09:24:22.198Z,7.77
2018-03-15T09:25:22.194Z,7.77
2018-03-15T09:26:22.202Z,7.56
2018-03-15T09:27:22.216Z,7.42
2018-03-15T09:28:22.218Z,7.55
2018-03-15T09:29:22.229Z,7.58
2018-03-15T09:30:22.238Z,7.55
2018-03-15T09:31:22.244Z,7.69
2018-03-15T09:32:22.256Z,7.89
2018-03-15T09:33:22.266Z,8.02
2018-03-15T09:34:22.273Z,8.15
2018-03-15T09:35:22.278Z,8.03
2018-03-15T09:36:22.286Z,8.08
2018-03-15T09:37:22.294Z,8.25
2018-03-15T09:38:22.304Z,8.18
2018-03-15T09:39:22.320Z,8.21
2018-03-15T09:40:22.325Z,8.39
2018-03-15T09:41:22.342Z,8.25
2018-03-15T09:42:22.386Z,8.26
2018-03-15T09:43:22.346Z,8.07
2018-03-15T09:44:22.359Z,8.26
2018-03-15T09:45:22.389Z,8.39
2018-03-15T09:46:22.371Z,8.22
2018-03-15T09:47:22.386Z,8.26
2018-03-15T09:48:22.387Z,8.35
2018-03-15T09:49:22.402Z,8.36
2018-03-15T09:50:22.407Z,8.37
2018-03-15T09:51:22.429Z,8.53
2018-03-15T09:52:22.431Z,8.35
2018-03-15T09:53:22.433Z,8.55
2018-03-15T09:54:22.440Z,8.72
2018-03-15T09:55:22.449Z,8.73
2018-03-15T09:56:22.466Z,8.79
2018-03-15T09:57:22.467Z,8.71
2018-03-15T09:58:22.496Z,8.69
2018-03-15T09:59:22.486Z,8.76
2018-03-15T10:00:22.497Z,8.69
2018-03-15T10:01:22.505Z,8.83
2018-03-15T10:02:22.512Z,9.01
2018-03-15T10:03:22.527Z,9.09
2018-03-15T10:04:22.530Z,9.09
2018-03-15T10:05:22.539Z,9.10
2018-03-15T10:06:22.548Z,8.93
2018-03-15T10:07:22.555Z,9.12
2018-03-15T10:08:22.567Z,9.15
2018-03-15T10:09:22.574Z,9.20
2018-03-15T10:10:22.581Z,9.35
2018-03-15T10:11:22.596Z,8.87
2018-03-15T10:12:22.603Z,8.94
2018-03-15T10:13:22.609Z,9.05
2018-03-15T10:14:22.620Z,8.91
2018-03-15T10:15:22.630Z,9.10
2018-03-15T10:16:22.674Z,9.25
2018-03-15T10:17:22.645Z,9.27
2018-03-15T10:18:22.673Z,9.39
2018-03-15T10:19:22.663Z,9.64
2018-03-15T10:20:22.678Z,9.67
2018-03-15T10:21:22.680Z,9.50
2018-03-15T10:22:22.708Z,9.79
2018-03-15T10:23:22.704Z,9.94
2018-03-15T10:24:22.709Z,9.86
2018-03-15T10:25:26.388Z,10.03
2018-03-15T10:26:22.729Z,9.97
2018-03-15T10:27:22.738Z,9.89
2018-03-15T10:28:22.761Z,10.09
2018-03-15T10:29:22.760Z,9.94
2018-03-15T10:30:22.773Z,9.97
2018-03-15T10:31:22.772Z,10.15
2018-03-15T10:32:22.782Z,10.28
2018-03-15T10:33:22.791Z,10.24
2018-03-15T10:34:22.803Z,10.25
2018-03-15T10:35:22.838Z,10.37
2018-03-15T10:36:22.820Z,10.33
2018-03-15T10:37:22.834Z,10.25
2018-03-15T10:38:22.838Z,10.30
2018-03-15T10:39:22.869Z,10.37
2018-03-15T10:40:22.858Z,10.26
2018-03-15T10:41:22.879Z,10.40
2018-03-15T10:42:22.880Z,10.40
2018-03-15T10:43:22.889Z,10.28
2018-03-15T10:44:22.899Z,10.36
2018-03-15T10:45:22.911Z,10.37
2018-03-15T10:46:22.924Z,10.24
2018-03-15T10:47:22.966Z,10.40
2018-03-15T10:48:22.936Z,10.34
2018-03-15T10:49:22.947Z,10.43
2018-03-15T10:50:22.952Z,10.39
2018-03-15T10:51:23.005Z,10.37
2018-03-15T10:52:22.978Z,10.60
2018-03-15T10:53:23.004Z,10.63
2018-03-15T10:54:23.008Z,10.58
2018-03-15T10:55:23.033Z,10.60
2018-03-15T10:56:23.013Z,10.78
2018-03-15T10:57:23.029Z,10.96
2018-03-15T10:58:23.046Z,10.78
2018-03-15T10:59:23.065Z,10.94
2018-03-15T11:00:23.055Z,11.06
2018-03-15T11:01:23.078Z,11.06
2018-03-15T11:02:23.077Z,11.16
2018-03-15T11:03:23.085Z,11.36
2018-03-15T11:04:23.099Z,11.54
2018-03-15T11:05:23.107Z,11.67
2018-03-15T11:06:23.125Z,11.77
2018-03-15T11:07:23.142Z,11.71
2018-03-15T11:08:23.142Z,11.96
2018-03-15T11:09:23.149Z,12.02
2018-03-15T11:10:23.159Z,12.16
2018-03-15T11:11:23.168Z,12.21
2018-03-15T11:12:23.194Z,12.23
2018-03-15T11:13:23.192Z,12.42
2018-03-15T11:14:23.201Z,12.56
2018-03-15T11:15:23.210Z,12.56
2018-03-15T11:16:23.225Z,12.38
2018-03-15T11:17:23.235Z,12.41
2018-03-15T11:18:23.248Z,12.48
2018-03-15T11:19:23.256Z,12.54
2018-03-15T11:20:23.280Z,12.66
2018-03-15T11:21:23.296Z,12.42
2018-03-15T11:22:23.292Z,12.42
2018-03-15T11:23:23.304Z,12.45
2018-03-15T11:24:23.316Z,12.27
2018-03-15T11:25:23.327Z,12.04
2018-03-15T11:26:23.345Z,12.26
2018-03-15T11:27:23.358Z,12.16
2018-03-15T11:28:23.386Z,11.77
2018-03-15T11:29:23.374Z,11.70
2018-03-15T11:30:23.385Z,12.05
2018-03-15T11:31:23.397Z,11.82
2018-03-15T11:32:23.409Z,11.80
2018-03-15T11:33:23.418Z,12.01
2018-03-15T11:34:23.430Z,11.90
2018-03-15T11:35:23.488Z,12.06
2018-03-15T11:36:23.457Z,11.78
2018-03-15T11:37:23.474Z,12.01
2018-03-15T11:38:23.476Z,12.19
2018-03-15T11:39:23.490Z,12.09
2018-03-15T11:40:23.531Z,12.04
2018-03-15T11:41:23.519Z,12.16
2018-03-15T11:42:23.523Z,12.05
2018-03-15T11:43:23.534Z,12.04
2018-03-15T11:44:23.550Z,11.97
2018-03-15T11:45:23.565Z,12.01
2018-03-15T11:46:23.570Z,12.08
2018-03-15T11:47:23.580Z,11.99
2018-03-15T11:48:23.600Z,12.08
2018-03-15T11:49:23.605Z,12.15
2018-03-15T11:50:23.617Z,11.96
2018-03-15T11:51:23.634Z,11.77
2018-03-15T11:52:23.643Z,12.04
2018-03-15T11:53:23.654Z,12.01
2018-03-15T11:54:23.667Z,11.89
2018-03-15T11:55:23.675Z,11.82
2018-03-15T11:56:23.708Z,11.80
2018-03-15T11:57:23.700Z,11.68
2018-03-15T11:58:23.713Z,11.70
2018-03-15T11:59:23.721Z,11.67
2018-03-15T12:00:23.733Z,11.75
2018-03-15T12:01:23.756Z,11.80
2018-03-15T12:02:23.765Z,11.89
2018-03-15T12:03:23.767Z,11.71
2018-03-15T12:04:23.784Z,11.34
2018-03-15T12:05:23.791Z,11.20
2018-03-15T12:06:23.802Z,11.46
2018-03-15T12:07:23.814Z,11.44
2018-03-15T12:08:23.831Z,11.47
2018-03-15T12:09:23.851Z,11.54
2018-03-15T12:10:23.846Z,11.46
2018-03-15T12:11:23.862Z,11.53
2018-03-15T12:12:23.867Z,11.71
2018-03-15T12:13:23.881Z,11.72
2018-03-15T12:14:23.896Z,11.68
2018-03-15T12:15:23.899Z,11.65
2018-03-15T12:16:23.910Z,11.67
2018-03-15T12:17:23.921Z,11.89
2018-03-15T12:18:23.940Z,11.72
2018-03-15T12:19:23.944Z,11.85
2018-03-15T12:20:23.965Z,11.86
2018-03-15T12:21:23.966Z,12.01
2018-03-15T12:22:23.981Z,11.90
2018-03-15T12:23:23.995Z,11.90
2018-03-15T12:24:23.998Z,11.94
2018-03-15T12:25:24.021Z,11.93
2018-03-15T12:26:24.043Z,11.72
2018-03-15T12:27:24.031Z,11.64
2018-03-15T12:28:24.043Z,11.75
2018-03-15T12:29:24.062Z,11.87
2018-03-15T12:30:24.064Z,11.78
2018-03-15T12:31:24.082Z,11.82
2018-03-15T12:32:24.094Z,11.59
2018-03-15T12:33:24.098Z,11.52
2018-03-15T12:34:24.107Z,11.54
2018-03-15T12:35:24.120Z,11.46
2018-03-15T12:36:24.129Z,11.50
2018-03-15T12:37:24.149Z,11.39
2018-03-15T12:38:24.157Z,11.44
2018-03-15T12:39:24.169Z,11.53
2018-03-15T12:40:24.175Z,11.52
2018-03-15T12:41:24.192Z,11.61
2018-03-15T12:42:24.190Z,11.50
2018-03-15T12:43:24.207Z,11.46
2018-03-15T12:44:24.220Z,11.47
2018-03-15T12:45:24.227Z,11.56
2018-03-15T12:46:24.233Z,11.67
2018-03-15T12:47:24.248Z,11.72
2018-03-15T12:48:24.258Z,11.74
2018-03-15T12:49:24.269Z,11.64
2018-03-15T12:50:24.308Z,11.67
2018-03-15T12:51:24.290Z,11.43
2018-03-15T12:52:24.299Z,11.46
2018-03-15T12:53:24.317Z,11.35
2018-03-15T12:54:24.368Z,11.44
2018-03-15T12:55:24.331Z,11.32
2018-03-15T12:56:24.410Z,11.39
2018-03-15T12:57:24.450Z,11.39
2018-03-15T12:58:24.365Z,11.32
2018-03-15T12:59:24.375Z,11.34
2018-03-15T13:00:24.422Z,11.39
2018-03-15T13:01:24.397Z,11.35
2018-03-15T13:02:24.405Z,11.34
2018-03-15T13:03:24.424Z,11.41
2018-03-15T13:04:24.437Z,11.47
2018-03-15T13:05:24.437Z,11.53
2018-03-15T13:06:24.448Z,11.44
2018-03-15T13:07:24.454Z,11.32
2018-03-15T13:08:24.472Z,11.43
2018-03-15T13:09:24.477Z,11.41
2018-03-15T13:10:24.495Z,11.25
2018-03-15T13:11:24.506Z,11.31
2018-03-15T13:12:24.508Z,11.17